Résultats

Course Saint Antoine 10km. Édition 2018.

10 Km
17/06/2018 à 09:00:00 - Meyreuil (13)
242 arrivant(e)s.





Place▲ Temps Dossard Nom Prenom Categ #Categ Sexe #Sexe Club Vit Moy Diplôme Photo Partager
1 00:36:50 412 NAVARRO NICOLAS SEM 1 M 1 AIX ATHLE PROVENCE 16.29
2 00:37:08 405 KOGO ELPHAZ-KIPCHUMBA SEM 2 M 2 AMICALE CYCLISE DE L'ESTAQUE 16.16
3 00:38:26 207 FORT JIMMY SEM 3 M 3 POWERSPORT.FR/AIX ATHLE PROVENCE 15.61
4 00:38:59 201 ELBARRH AZIZ M1M 1 M 4 AIX ATHLE PROVENCE 15.39
5 00:39:27 290 REGNERIE PASCAL M1M 2 M 5 KALENJI TEAM 15.21
6 00:39:41 122 ACOSTA FRANCISCO SEM 4 M 6 AIX ATHLE PROVENCE 15.12
7 00:40:49 147 BONDUE MAXIME SEM 5 M 7 LES FOULEES DU LORIOT 14.70
8 00:41:50 410 ARNIAUD ERIC M2M 1 M 8 COURIR A MEYREUIL 14.34
9 00:42:07 193 DOUNASSRE ALAA SEM 6 M 9 AIX ATHLE PROVENCE 14.25
10 00:42:26 403 HOARAU JEAN SEM 7 M 10 LA FOULEE DU LORIOT 14.14
11 00:43:14 324 VULLO MAXIME SEM 8 M 11 KM 42.195 MARSEILLE 13.88
12 00:43:15 307 SUROY VINCENT M1M 3 M 12 FSPN 13.87
13 00:43:56 316 VICENTE VICTOR SEM 9 M 13 ROUSSET TRIATHLON 13.66
14 00:45:29 286 PROIETTO JEAN-FRANCK M2M 2 M 14 AS RISPOLI 13.19
15 00:45:30 137 BARDON CEDRICK SEM 10 M 15 MASSILIA RUN HEART 13.19
16 00:45:37 266 MORIN ANTHONY SEM 11 M 16 AIX ATHLE PROVENCE 13.15
17 00:45:37 294 RIGAUD JULIEN SEM 12 M 17 LA FOULEE DE GREASQUE 13.15
18 00:45:52 301 SEMPERE RAPHAEL SEM 13 M 18 13.08
19 00:46:08 298 SAFI NICOLAS M3M 1 M 19 AUBAGNE TRIATHLON 13.01
20 00:46:19 311 TRINCI FABIEN M1M 4 M 20 COURIR A FUVEAU 12.95
21 00:46:21 325 WAWRZYNKOWSKI PAUL ESM 1 M 21 MASSILIA RUN HEART 12.94
22 00:46:33 421 WEBER TIMOTHE ESM 2 M 22 12.89
23 00:46:34 168 CHERON NOEL M1M 5 M 23 12.88
24 00:46:43 284 PIEDBOIS PAULINE SEF 1 F 1 COURIR A VELAUX 12.84
25 00:46:48 419 COMTE CHRISTOPHE SEM 14 M 24 12.82
26 00:46:54 337 AUGER BLAISE M1M 6 M 25 COURIR A MEYREUIL 12.79
27 00:46:58 253 MARRADI RICHARD M3M 2 M 26 LE LIEVRE ET LA TORTUE 12.78
28 00:47:14 262 MERLE PHILIPPE M2M 3 M 27 CLES GARDANNE TRIATHLON 12.70
29 00:47:17 181 DESROCHES LUDOVIC SEM 15 M 28 12.69
30 00:47:19 297 SAF KARIM M1M 7 M 29 BOXING CLUB HIPPO 12.68
31 00:47:27 133 AZM KAMEL SEM 16 M 30 .BOXING CLUB HIPPO 12.64
32 00:47:27 278 PASCUAL PHILIPPE M2M 4 M 31 12.64
33 00:47:41 167 CHAUVIN YANN SEM 17 M 32 12.58
34 00:47:44 202 FAMECHON CHRISTOPHE M2M 5 M 33 CABALLO BLANCO 12.57
35 00:47:52 348 LADOUZE JR M2M 6 M 34 12.53
36 00:47:54 124 ALBEROLA IVAN M1M 8 M 35 CE STMICROELECTRONICS 12.53
37 00:48:20 416 BOURRELLY MATTHIEU SEM 18 M 36 12.41
38 00:48:35 302 SERRES VINCENT M1M 9 M 37 OM ATHLETISME 12.35
39 00:48:54 149 BONNEFOY ERIC M1M 10 M 38 BSSA 12.27
40 00:48:58 194 DOURTHE GREGORY SEM 19 M 39 MASSILIA RUN HEART 12.25
41 00:49:05 335 KRIEG GUILLAUME SEM 20 M 40 12.22
42 00:49:11 404 BENEDETTO GUY M3M 3 M 41 ROUSSET TRI 12.20
43 00:49:19 336 DEPETRIS PASCAL M1M 11 M 42 12.17
44 00:49:35 186 DI-NOLFO LUDOVIC SEM 21 M 43 MASSILIA RUN HEART 12.10
45 00:49:39 328 ZOGHLAMI NASSER M1M 12 M 44 12.08
46 00:49:51 141 BERNARD BENOIT SEM 22 M 45 CABALLO BLANCO TEAM 12.04
47 00:49:59 305 STEINMETZ VALENTIN JUM 1 M 46 VALENTIN STEINMETZ 12.00
48 00:50:00 230 ICARD RAYMOND M2M 7 M 47 12.00
49 00:50:02 251 LOUVIOT LISA SEF 2 F 2 11.99
50 00:50:03 268 MOURON MICHEL M2M 8 M 48 COURIR A FUVEAU 11.99
51 00:50:09 129 ARNAUD GERARD M3M 4 M 49 11.96
52 00:50:12 215 GORI CHRISTOPHE SEM 23 M 50 COURIR A MEYREUIL 11.95
53 00:50:18 411 SAERENS BRUNO M2M 9 M 51 SMAC 11.93
54 00:50:30 206 FIORI PHILIPPE SEM 24 M 52 11.88
55 00:50:44 204 FAURE-VINCENT PHILIPPE M3M 5 M 53 11.83
56 00:51:02 299 SAIDI KAMEL M2M 10 M 54 CROSSTRAINER 11.76
57 00:51:03 291 RENARD LAURENT M1M 13 M 55 MASSILIA RUN HEART 11.75
58 00:51:24 249 LE-ROYER BERNARD M4M 1 M 56 AUBAGNE TRIATHLON 11.67
59 00:51:30 218 GUILLON ROMAIN SEM 25 M 57 11.65
60 00:51:32 170 CHUGA-ABELI JEAN-LOUIS SEM 26 M 58 11.64
61 00:51:38 287 PUSKARIC PIERRE M2M 11 M 59 ABEILLES DE LA LISETTE 11.62
62 00:51:48 199 DUVAL CHRISTOPHE M1M 14 M 60 SAINT MAX ATHLETIC CLUB 11.58
63 00:51:54 274 NOVELLO JACKY M3M 6 M 61 US THOUARS 11.56
64 00:52:09 225 HEMISSI ADNNANE M1M 15 M 62 CE STMICROELECTRONICS 11.51
65 00:52:23 224 HEBTING PASCAL M2M 12 M 63 11.45
66 00:52:39 162 CATANZARO TONI SEM 27 M 64 11.40
67 00:52:45 345 MULDERAWS FRANCK M1M 16 M 65 11.37
68 00:52:47 338 LILLO ERIC M2M 13 M 66 ACP MARSEILLE 11.37
69 00:52:49 343 COLOMBO STEPHANE M1M 17 M 67 FOULEE GREASQUE 11.36
70 00:52:50 306 STIOUI MATTHIEU SEM 28 M 68 11.36
71 00:52:57 252 MARINO CHRISTELLE SEF 3 F 3 SMAC 11.33
72 00:53:07 173 DAUGE HERVE SEM 29 M 69 AIX ATHLE PROVENCE 11.30
73 00:53:08 341 SUBE THIBAULT SEM 30 M 70 11.29
74 00:53:17 134 BAHAT ABBES M2M 14 M 71 SPEEDY CLUB DE PROVENCE 11.26
75 00:53:20 342 SUBE LUCAS JUM 2 M 72 11.25
76 00:53:25 271 NOEUVEGLISE PIERRE M3M 7 M 73 GDD 11.23
77 00:53:36 413 MARTINEZ THIERRY M2M 15 M 74 COURIR A MEYREUIL 11.19
78 00:53:38 270 NICOLAS ADRIEN SEM 31 M 75 11.19
79 00:53:41 314 VENTURA NORBERT M1M 18 M 76 11.18
80 00:53:46 138 BARILE DOMINIQUE M2F 1 F 4 11.16
81 00:53:51 319 VILLETON MICHEL M3M 8 M 77 VILLETON 11.14
82 00:53:57 223 HADJI SAMI SEM 32 M 78 11.12
83 00:54:04 313 VEILLET LAETITIA SEF 4 F 5 ROUSSET TRIATHLON 11.10
84 00:54:19 320 VILLETON STEPHANIE SEF 5 F 6 EDF PONTEAU 11.05
85 00:54:22 227 HERIVAULT FREDERIC M2M 16 M 79 11.04
86 00:54:23 327 WOLFF JEAN-PHILIPPE SEM 33 M 80 11.03
87 00:54:42 332 CISTERNA SANDRINE M1F 1 F 7 COURIR A VELAUX 10.97
88 00:54:56 237 KOVEL ROMAIN SEM 34 M 81 10.92
89 00:55:12 229 IACOPONI PROSPER M3M 9 M 82 LE LIEVRE ET LA TORTUE 10.87
90 00:55:14 226 HERITIER CYRIL SEM 35 M 83 10.86
91 00:55:20 161 CASTELLAN CHRISTOPHE M1M 19 M 84 CE STMICROELECTRONICS 10.84
92 00:55:29 263 MONCELET PHILIPPE M2M 17 M 85 TEAM WAKE UP AND RUN 10.81
93 00:55:40 241 LAFROGNE PATRICK M2M 18 M 86 AIX ATHLE PROVENCE 10.78
94 00:55:46 231 JEGOU VALERIE M2F 2 F 8 10.76
95 00:55:55 121 ABRACHY FRANCK M2M 19 M 87 10.73
96 00:56:02 209 GARCIA AUDREY SEF 6 F 9 LA SCO 10.71
97 00:56:19 300 SALINERO STEPHANE M1M 20 M 88 10.65
98 00:56:20 408 BENSOT ALI M3M 10 M 89 COURIR A MEYREUIL 10.65
99 00:56:28 331 DERLON FRANCOIS M1M 21 M 90 10.63
100 00:56:36 242 LAGLER ANTHONY M1M 22 M 91 CLES GARDANNE TRIATHLON 10.60